createdAt,value
2019-05-19T00:02:00.484Z,12.85
2019-05-19T00:04:32.719Z,12.93
2019-05-19T00:07:02.215Z,12.88
2019-05-19T00:09:30.671Z,12.79
2019-05-19T00:11:59.075Z,12.76
2019-05-19T00:14:27.515Z,12.63
2019-05-19T00:16:55.944Z,12.51
2019-05-19T00:19:27.056Z,12.49
2019-05-19T00:21:55.441Z,12.61
2019-05-19T00:24:24.225Z,12.41
2019-05-19T00:26:52.685Z,12.40
2019-05-19T00:29:21.092Z,12.40
2019-05-19T00:31:52.263Z,12.47
2019-05-19T00:34:20.922Z,12.50
2019-05-19T00:36:49.345Z,12.44
2019-05-19T00:39:18.206Z,12.50
2019-05-19T00:41:49.367Z,12.55
2019-05-19T00:44:18.907Z,12.37
2019-05-19T00:46:47.433Z,12.39
2019-05-19T00:49:17.927Z,12.38
2019-05-19T00:51:50.602Z,12.43
2019-05-19T00:54:19.792Z,12.50
2019-05-19T00:56:48.840Z,11.56
2019-05-19T00:59:18.411Z,12.37
2019-05-19T01:01:46.829Z,12.32
2019-05-19T01:04:17.837Z,12.30
2019-05-19T01:06:47.473Z,12.35
2019-05-19T01:09:15.915Z,12.41
2019-05-19T01:11:44.345Z,12.40
2019-05-19T01:14:17.477Z,12.37
2019-05-19T01:16:45.893Z,12.37
2019-05-19T01:19:14.338Z,12.33
2019-05-19T01:21:44.512Z,12.24
2019-05-19T01:24:13.097Z,12.31
2019-05-19T01:26:41.511Z,12.37
2019-05-19T01:29:11.052Z,12.33
2019-05-19T01:31:42.042Z,12.28
2019-05-19T01:34:10.487Z,12.23
2019-05-19T01:36:41.469Z,12.30
2019-05-19T01:39:09.890Z,12.19
2019-05-19T01:41:42.046Z,12.01
2019-05-19T01:44:11.567Z,12.18
2019-05-19T01:46:42.554Z,12.20
2019-05-19T01:49:10.995Z,12.16
2019-05-19T01:51:40.545Z,12.19
2019-05-19T01:54:09.011Z,12.16
2019-05-19T01:56:37.410Z,12.28
2019-05-19T01:59:05.832Z,12.21
2019-05-19T02:01:34.246Z,12.37
2019-05-19T02:04:02.669Z,12.40
2019-05-19T02:06:31.117Z,12.34
2019-05-19T02:08:59.538Z,12.44
2019-05-19T02:11:28.020Z,12.28
2019-05-19T02:13:56.438Z,12.31
2019-05-19T02:16:28.677Z,12.33
2019-05-19T02:18:59.241Z,12.38
2019-05-19T02:21:30.395Z,12.30
2019-05-19T02:23:59.702Z,12.34
2019-05-19T02:26:28.322Z,12.37
2019-05-19T02:28:56.735Z,12.12
2019-05-19T02:31:26.206Z,12.18
2019-05-19T02:33:54.744Z,12.22
2019-05-19T02:36:26.928Z,12.18
2019-05-19T02:38:55.365Z,12.25
2019-05-19T02:41:27.700Z,12.19
2019-05-19T02:43:57.619Z,12.22
2019-05-19T02:46:27.510Z,12.15
2019-05-19T02:48:56.851Z,12.13
2019-05-19T02:51:27.084Z,12.03
2019-05-19T02:53:56.509Z,12.06
2019-05-19T02:56:27.892Z,12.08
2019-05-19T02:58:59.909Z,12.07
2019-05-19T03:01:28.890Z,11.99
2019-05-19T03:03:57.305Z,11.98
2019-05-19T03:06:25.745Z,11.92
2019-05-19T03:08:54.171Z,12.00
2019-05-19T03:11:22.603Z,12.02
2019-05-19T03:13:51.014Z,12.13
2019-05-19T03:16:19.444Z,12.19
2019-05-19T03:18:47.854Z,12.14
2019-05-19T03:21:16.291Z,12.14
2019-05-19T03:23:44.698Z,12.14
2019-05-19T03:26:13.132Z,12.19
2019-05-19T03:28:41.585Z,12.21
2019-05-19T03:31:12.666Z,12.27
2019-05-19T03:33:43.786Z,12.12
2019-05-19T03:36:13.154Z,12.26
2019-05-19T03:38:41.585Z,12.30
2019-05-19T03:41:10.029Z,12.21
2019-05-19T03:43:38.447Z,12.28
2019-05-19T03:46:06.863Z,12.22
2019-05-19T03:48:35.286Z,12.12
2019-05-19T03:51:03.818Z,11.97
2019-05-19T03:53:32.215Z,12.15
2019-05-19T03:56:01.672Z,12.26
2019-05-19T03:58:30.083Z,12.24
2019-05-19T04:00:58.501Z,12.32
2019-05-19T04:03:26.954Z,12.28
2019-05-19T04:05:57.870Z,12.46
2019-05-19T04:08:26.325Z,12.37
2019-05-19T04:10:54.748Z,12.24
2019-05-19T04:13:23.169Z,12.29
2019-05-19T04:15:51.681Z,12.13
2019-05-19T04:18:20.098Z,12.32
2019-05-19T04:20:48.738Z,12.43
2019-05-19T04:23:17.094Z,12.49
2019-05-19T04:25:47.954Z,12.62
2019-05-19T04:28:16.417Z,12.72
2019-05-19T04:30:44.835Z,12.71
2019-05-19T04:33:13.248Z,12.64
2019-05-19T04:35:41.694Z,12.74
2019-05-19T04:38:10.099Z,12.89
2019-05-19T04:40:41.151Z,12.75
2019-05-19T04:43:14.547Z,12.79
2019-05-19T04:45:42.955Z,12.54
2019-05-19T04:48:11.363Z,12.45
2019-05-19T04:50:39.790Z,12.63
2019-05-19T04:53:08.208Z,12.58
2019-05-19T04:55:36.713Z,12.65
2019-05-19T04:58:07.479Z,12.48
2019-05-19T05:00:35.939Z,12.41
2019-05-19T05:03:04.350Z,12.61
2019-05-19T05:05:33.685Z,12.68
2019-05-19T05:08:02.275Z,12.62
2019-05-19T05:10:30.721Z,12.72
2019-05-19T05:12:59.137Z,12.75
2019-05-19T05:15:28.998Z,12.41
2019-05-19T05:17:57.377Z,12.71
2019-05-19T05:20:25.804Z,12.76
2019-05-19T05:22:55.252Z,12.80
2019-05-19T05:25:23.698Z,12.83
2019-05-19T05:27:54.629Z,12.90
2019-05-19T05:30:23.054Z,12.90
2019-05-19T05:32:52.454Z,12.97
2019-05-19T05:35:21.480Z,12.95
2019-05-19T05:37:49.925Z,13.03
2019-05-19T05:40:20.856Z,13.01
2019-05-19T05:42:49.713Z,13.14
2019-05-19T05:45:18.232Z,12.12
2019-05-19T05:47:46.630Z,13.09
2019-05-19T05:50:15.329Z,12.98
2019-05-19T05:52:43.740Z,13.14
2019-05-19T05:55:12.336Z,13.27
2019-05-19T05:57:40.744Z,13.39
2019-05-19T06:00:09.853Z,13.41
2019-05-19T06:02:38.280Z,13.25
2019-05-19T06:05:08.299Z,13.44
2019-05-19T06:07:38.767Z,13.56
2019-05-19T06:10:09.410Z,13.56
2019-05-19T06:12:40.197Z,13.56
2019-05-19T06:15:09.093Z,13.56
2019-05-19T06:17:37.505Z,13.55
2019-05-19T06:20:07.979Z,13.52
2019-05-19T06:22:54.471Z,13.53
2019-05-19T06:25:09.484Z,13.38
2019-05-19T06:27:37.908Z,13.60
2019-05-19T06:30:08.678Z,13.58
2019-05-19T06:32:38.405Z,13.38
2019-05-19T06:35:07.851Z,13.57
2019-05-19T06:37:36.309Z,13.73
2019-05-19T06:40:06.652Z,13.74
2019-05-19T06:42:35.093Z,13.60
2019-05-19T06:45:03.586Z,13.52
2019-05-19T06:47:32.031Z,13.74
2019-05-19T06:50:00.447Z,13.85
2019-05-19T06:52:28.884Z,13.89
2019-05-19T06:54:59.823Z,13.98
2019-05-19T06:57:28.232Z,13.76
2019-05-19T06:59:56.643Z,13.82
2019-05-19T07:02:25.094Z,13.83
2019-05-19T07:04:53.565Z,13.91
2019-05-19T07:07:21.979Z,13.90
2019-05-19T07:09:58.383Z,14.00
2019-05-19T07:12:20.581Z,14.13
2019-05-19T07:14:49.769Z,14.36
2019-05-19T07:17:20.657Z,14.27
2019-05-19T07:19:49.089Z,14.30
2019-05-19T07:22:17.549Z,14.22
2019-05-19T07:24:45.997Z,14.25
2019-05-19T07:27:14.458Z,14.36
2019-05-19T07:29:42.920Z,14.28
2019-05-19T07:32:11.309Z,14.45
2019-05-19T07:34:39.723Z,14.63
2019-05-19T07:37:10.907Z,14.72
2019-05-19T07:39:39.356Z,14.60
2019-05-19T07:42:07.776Z,14.67
2019-05-19T07:44:36.213Z,14.77
2019-05-19T07:47:04.614Z,14.87
2019-05-19T07:49:36.656Z,15.08
2019-05-19T07:52:04.474Z,15.10
2019-05-19T07:54:32.891Z,15.24
2019-05-19T07:57:01.326Z,15.26
2019-05-19T07:59:30.830Z,15.37
2019-05-19T08:01:59.372Z,15.28
2019-05-19T08:04:28.906Z,15.40
2019-05-19T08:06:57.391Z,15.46
2019-05-19T08:09:25.837Z,15.45
2019-05-19T08:11:54.350Z,15.43
2019-05-19T08:14:26.286Z,15.39
2019-05-19T08:16:54.823Z,15.56
2019-05-19T08:19:23.307Z,15.48
2019-05-19T08:21:51.715Z,15.59
2019-05-19T08:24:20.162Z,15.60
2019-05-19T08:26:48.604Z,15.54
2019-05-19T08:29:17.010Z,15.89
2019-05-19T08:31:45.526Z,15.95
2019-05-19T08:34:13.968Z,16.11
2019-05-19T08:36:42.405Z,16.24
2019-05-19T08:39:10.980Z,16.35
2019-05-19T08:41:39.421Z,16.55
2019-05-19T08:44:07.873Z,16.58
2019-05-19T08:46:36.322Z,16.68
2019-05-19T08:49:04.806Z,16.79
2019-05-19T08:51:33.447Z,16.91
2019-05-19T08:54:13.891Z,17.03
2019-05-19T08:56:32.034Z,17.16
2019-05-19T08:59:00.608Z,16.90
2019-05-19T09:01:29.032Z,16.90
2019-05-19T09:03:57.572Z,17.22
2019-05-19T09:06:26.057Z,17.35
2019-05-19T09:08:54.501Z,17.04
2019-05-19T09:11:22.915Z,17.25
2019-05-19T09:13:51.334Z,17.24
2019-05-19T09:16:19.776Z,17.36
2019-05-19T09:18:50.693Z,17.21
2019-05-19T09:21:19.115Z,17.21
2019-05-19T09:23:47.545Z,17.21
2019-05-19T09:26:15.984Z,17.34
2019-05-19T09:28:44.451Z,17.53
2019-05-19T09:31:12.882Z,17.62
2019-05-19T09:33:41.355Z,17.56
2019-05-19T09:36:10.841Z,17.70
2019-05-19T09:38:39.290Z,17.42
2019-05-19T09:41:07.742Z,17.84
2019-05-19T09:43:36.145Z,18.23
2019-05-19T09:46:05.703Z,18.66
2019-05-19T09:48:34.267Z,18.97
2019-05-19T09:51:02.683Z,19.08
2019-05-19T09:53:31.227Z,18.71
2019-05-19T09:55:59.720Z,18.97
2019-05-19T09:58:28.240Z,19.33
2019-05-19T10:00:56.679Z,19.50
2019-05-19T10:03:25.125Z,19.57
2019-05-19T10:05:53.501Z,19.67
2019-05-19T10:08:28.296Z,19.81
2019-05-19T10:11:29.336Z,20.09
2019-05-19T10:14:00.667Z,20.13
2019-05-19T10:16:29.176Z,19.91
2019-05-19T10:18:57.603Z,19.86
2019-05-19T10:21:28.826Z,19.80
2019-05-19T10:23:57.269Z,19.92
2019-05-19T10:26:25.665Z,20.10
2019-05-19T10:28:54.112Z,19.88
2019-05-19T10:31:22.517Z,19.86
2019-05-19T10:33:51.000Z,19.73
2019-05-19T10:36:19.419Z,19.58
2019-05-19T10:38:57.776Z,19.67
2019-05-19T10:41:26.144Z,19.88
2019-05-19T10:44:00.965Z,19.97
2019-05-19T10:46:30.237Z,19.77
2019-05-19T10:48:58.740Z,20.05
2019-05-19T10:51:27.173Z,20.15
2019-05-19T10:53:55.582Z,20.32
2019-05-19T10:56:24.004Z,20.43
2019-05-19T10:58:52.460Z,20.34
2019-05-19T11:01:23.618Z,20.27
2019-05-19T11:03:52.016Z,20.51
2019-05-19T11:06:20.445Z,20.31
2019-05-19T11:08:48.857Z,20.58
2019-05-19T11:11:17.275Z,20.70
2019-05-19T11:13:45.693Z,20.62
2019-05-19T11:16:16.599Z,20.75
2019-05-19T11:18:45.017Z,20.80
2019-05-19T11:21:13.432Z,20.90
2019-05-19T11:23:41.859Z,21.26
2019-05-19T11:26:13.878Z,21.14
2019-05-19T11:28:43.269Z,21.28
2019-05-19T11:31:11.742Z,21.15
2019-05-19T11:33:40.176Z,21.24
2019-05-19T11:36:08.563Z,21.14
2019-05-19T11:38:37.162Z,21.15
2019-05-19T11:41:05.787Z,21.42
2019-05-19T11:43:34.195Z,21.39
2019-05-19T11:46:02.631Z,21.40
2019-05-19T11:48:32.149Z,21.41
2019-05-19T11:51:00.559Z,21.60
2019-05-19T11:53:28.995Z,21.50
2019-05-19T11:56:06.191Z,21.63
2019-05-19T11:58:27.551Z,21.71
2019-05-19T12:00:58.471Z,22.00
2019-05-19T12:03:26.901Z,22.00
2019-05-19T12:05:56.435Z,21.84
2019-05-19T12:08:26.219Z,21.89
2019-05-19T12:10:56.069Z,21.82
2019-05-19T12:13:24.543Z,21.94
2019-05-19T12:15:56.588Z,22.22
2019-05-19T12:18:25.044Z,22.41
2019-05-19T12:20:53.462Z,22.48
2019-05-19T12:23:25.735Z,22.43
2019-05-19T12:25:55.232Z,22.49
2019-05-19T12:28:27.403Z,22.57
2019-05-19T12:30:55.844Z,22.63
2019-05-19T12:33:26.674Z,22.52
2019-05-19T12:35:55.109Z,22.62
2019-05-19T12:38:24.172Z,22.58
2019-05-19T12:40:52.746Z,22.57
2019-05-19T12:43:23.840Z,22.50
2019-05-19T12:45:52.311Z,22.56
2019-05-19T12:48:20.744Z,22.33
2019-05-19T12:50:49.160Z,22.53
2019-05-19T12:53:17.588Z,22.79
2019-05-19T12:55:46.014Z,22.94
2019-05-19T12:58:14.495Z,22.91
2019-05-19T13:00:43.012Z,23.01
2019-05-19T13:03:11.421Z,22.78
2019-05-19T13:05:39.865Z,22.67
2019-05-19T13:08:11.361Z,22.47
2019-05-19T13:10:38.461Z,22.18
2019-05-19T13:13:10.090Z,22.05
2019-05-19T13:15:42.373Z,21.71
2019-05-19T13:18:17.919Z,21.55
2019-05-19T13:20:46.493Z,21.70
2019-05-19T13:23:15.903Z,21.78
2019-05-19T13:25:50.982Z,21.91
2019-05-19T13:28:19.604Z,22.18
2019-05-19T13:30:49.168Z,22.34
2019-05-19T13:33:17.608Z,22.26
2019-05-19T13:35:46.128Z,22.28
2019-05-19T13:38:17.145Z,22.31
2019-05-19T13:40:47.554Z,22.21
2019-05-19T13:43:17.167Z,22.02
2019-05-19T13:45:45.616Z,22.25
2019-05-19T13:48:18.260Z,22.49
2019-05-19T13:50:47.460Z,22.50
2019-05-19T13:53:15.938Z,22.51
2019-05-19T13:55:47.319Z,22.55
2019-05-19T13:58:16.188Z,22.50
2019-05-19T14:00:44.995Z,22.42
2019-05-19T14:03:13.580Z,22.44
2019-05-19T14:05:42.019Z,22.38
2019-05-19T14:08:11.593Z,22.29
2019-05-19T14:10:43.863Z,22.24
2019-05-19T14:13:11.806Z,22.23
2019-05-19T14:15:42.361Z,22.39
2019-05-19T14:18:11.695Z,22.36
2019-05-19T14:20:42.700Z,22.23
2019-05-19T14:23:11.324Z,22.01
2019-05-19T14:25:39.754Z,21.81
2019-05-19T14:28:08.163Z,21.80
2019-05-19T14:30:36.989Z,21.76
2019-05-19T14:33:05.404Z,21.60
2019-05-19T14:35:33.843Z,21.57
2019-05-19T14:38:02.626Z,21.66
2019-05-19T14:40:33.453Z,21.61
2019-05-19T14:43:04.566Z,21.37
2019-05-19T14:45:34.091Z,21.38
2019-05-19T14:48:02.560Z,21.44
2019-05-19T14:50:33.502Z,21.34
2019-05-19T14:53:02.284Z,21.38
2019-05-19T14:55:30.994Z,21.35
2019-05-19T14:57:59.474Z,21.59
2019-05-19T15:00:28.369Z,21.37
2019-05-19T15:02:58.986Z,21.10
2019-05-19T15:05:27.505Z,21.09
2019-05-19T15:07:56.350Z,20.95
2019-05-19T15:10:28.010Z,20.92
2019-05-19T15:12:58.523Z,20.81
2019-05-19T15:15:29.444Z,20.58
2019-05-19T15:17:57.874Z,20.59
2019-05-19T15:20:26.589Z,20.61
2019-05-19T15:22:55.347Z,20.60
2019-05-19T15:25:26.923Z,20.80
2019-05-19T15:28:01.548Z,20.82
2019-05-19T15:30:29.602Z,20.93
2019-05-19T15:33:13.242Z,20.93
2019-05-19T15:35:40.345Z,20.76
2019-05-19T15:38:08.978Z,20.76
2019-05-19T15:40:37.409Z,20.53
2019-05-19T15:43:05.889Z,20.44
2019-05-19T15:45:35.301Z,20.62
2019-05-19T15:48:05.136Z,20.62
2019-05-19T15:50:36.247Z,20.73
2019-05-19T15:53:04.686Z,20.51
2019-05-19T15:55:44.409Z,20.56
2019-05-19T15:58:16.378Z,20.68
2019-05-19T16:00:46.959Z,20.43
2019-05-19T16:03:16.653Z,20.26
2019-05-19T16:05:45.030Z,20.00
2019-05-19T16:08:15.970Z,19.96
2019-05-19T16:10:46.934Z,19.72
2019-05-19T16:13:21.826Z,19.69
2019-05-19T16:15:51.481Z,19.73
2019-05-19T16:18:19.893Z,19.78
2019-05-19T16:20:49.659Z,19.85
2019-05-19T16:23:18.351Z,19.89
2019-05-19T16:25:47.105Z,19.79
2019-05-19T16:28:30.653Z,19.91
2019-05-19T16:30:58.052Z,19.86
2019-05-19T16:33:28.014Z,19.60
2019-05-19T16:36:03.554Z,19.63
2019-05-19T16:38:31.993Z,19.24
2019-05-19T16:41:00.404Z,19.42
2019-05-19T16:43:28.850Z,19.50
2019-05-19T16:45:57.281Z,19.44
2019-05-19T16:48:30.889Z,19.36
2019-05-19T16:51:00.293Z,19.43
2019-05-19T16:53:33.508Z,19.43
2019-05-19T16:56:03.838Z,19.42
2019-05-19T16:58:45.225Z,19.46
2019-05-19T17:01:19.944Z,19.37
2019-05-19T17:03:50.810Z,19.21
2019-05-19T17:06:19.231Z,19.00
2019-05-19T17:08:47.674Z,18.69
2019-05-19T17:11:18.619Z,18.47
2019-05-19T17:13:53.915Z,18.12
2019-05-19T17:16:23.475Z,17.89
2019-05-19T17:18:54.445Z,17.96
2019-05-19T17:21:24.021Z,17.94
2019-05-19T17:23:52.434Z,17.60
2019-05-19T17:26:36.665Z,17.34
2019-05-19T17:29:05.076Z,17.17
2019-05-19T17:31:38.343Z,16.99
2019-05-19T17:34:06.769Z,17.07
2019-05-19T17:36:35.195Z,17.06
2019-05-19T17:39:05.396Z,16.56
2019-05-19T17:41:36.374Z,16.96
2019-05-19T17:44:04.790Z,16.74
2019-05-19T17:46:38.136Z,16.43
2019-05-19T17:49:06.673Z,16.41
2019-05-19T17:51:35.084Z,16.37
2019-05-19T17:54:06.765Z,16.27
2019-05-19T17:56:36.101Z,16.09
2019-05-19T17:59:16.076Z,15.96
2019-05-19T18:01:34.840Z,15.95
2019-05-19T18:04:03.273Z,15.92
2019-05-19T18:06:32.742Z,15.89
2019-05-19T18:09:01.181Z,15.63
2019-05-19T18:11:29.624Z,15.62
2019-05-19T18:14:02.238Z,15.75
2019-05-19T18:16:30.639Z,15.40
2019-05-19T18:19:02.852Z,15.29
2019-05-19T18:21:31.283Z,15.30
2019-05-19T18:23:59.695Z,15.35
2019-05-19T18:26:31.103Z,15.32
2019-05-19T18:28:59.516Z,15.16
2019-05-19T18:31:31.131Z,14.96
2019-05-19T18:33:59.631Z,14.84
2019-05-19T18:36:28.896Z,14.91
2019-05-19T18:39:01.207Z,14.89
2019-05-19T18:41:32.848Z,14.91
2019-05-19T18:44:05.327Z,14.72
2019-05-19T18:46:33.795Z,14.84
2019-05-19T18:49:05.807Z,14.82
2019-05-19T18:51:34.223Z,14.75
2019-05-19T18:54:02.712Z,14.74
2019-05-19T18:56:31.135Z,14.80
2019-05-19T18:59:00.889Z,14.73
2019-05-19T19:01:29.333Z,14.85
2019-05-19T19:04:05.094Z,14.73
2019-05-19T19:06:34.018Z,14.80
2019-05-19T19:09:03.058Z,14.72
2019-05-19T19:11:31.481Z,14.67
2019-05-19T19:14:00.396Z,14.61
2019-05-19T19:16:31.261Z,14.56
2019-05-19T19:19:00.879Z,14.68
2019-05-19T19:21:29.306Z,14.61
2019-05-19T19:23:57.718Z,14.56
2019-05-19T19:26:26.158Z,14.58
2019-05-19T19:28:58.529Z,14.40
2019-05-19T19:31:26.198Z,14.43
2019-05-19T19:33:58.764Z,14.35
2019-05-19T19:36:28.229Z,14.41
2019-05-19T19:38:57.709Z,14.45
2019-05-19T19:41:30.525Z,14.52
2019-05-19T19:43:58.982Z,14.46
2019-05-19T19:46:29.053Z,14.49
2019-05-19T19:49:00.946Z,14.43
2019-05-19T19:51:29.358Z,14.50
2019-05-19T19:53:57.810Z,14.56
2019-05-19T19:56:30.781Z,14.56
2019-05-19T19:59:01.012Z,14.45
2019-05-19T20:01:29.418Z,14.48
2019-05-19T20:03:58.913Z,14.39
2019-05-19T20:06:29.932Z,14.42
2019-05-19T20:09:05.948Z,14.30
2019-05-19T20:11:35.359Z,14.28
2019-05-19T20:14:03.782Z,14.33
2019-05-19T20:16:33.364Z,14.33
2019-05-19T20:19:01.775Z,14.43
2019-05-19T20:21:31.250Z,14.32
2019-05-19T20:24:02.334Z,14.33
2019-05-19T20:26:31.735Z,14.38
2019-05-19T20:29:03.961Z,14.25
2019-05-19T20:31:34.368Z,14.15
2019-05-19T20:34:02.845Z,14.09
2019-05-19T20:36:34.838Z,14.16
2019-05-19T20:39:04.895Z,14.15
2019-05-19T20:41:33.346Z,14.16
2019-05-19T20:44:09.778Z,14.17
2019-05-19T20:46:38.180Z,14.08
2019-05-19T20:49:06.633Z,14.03
2019-05-19T20:51:35.092Z,13.96
2019-05-19T20:54:03.491Z,13.88
2019-05-19T20:56:32.884Z,13.80
2019-05-19T20:59:01.293Z,13.84
2019-05-19T21:01:48.632Z,13.76
2019-05-19T21:04:20.593Z,13.77
2019-05-19T21:06:52.685Z,13.65
2019-05-19T21:09:21.082Z,13.64
2019-05-19T21:11:49.959Z,13.70
2019-05-19T21:14:20.291Z,13.65
2019-05-19T21:16:49.795Z,13.65
2019-05-19T21:19:22.073Z,13.62
2019-05-19T21:21:51.842Z,13.61
2019-05-19T21:27:23.633Z,13.54
2019-05-19T21:30:14.219Z,13.52
2019-05-19T21:32:44.631Z,13.47
2019-05-19T21:35:13.078Z,13.49
2019-05-19T21:37:48.718Z,13.57
2019-05-19T21:40:17.566Z,13.69
2019-05-19T21:42:52.443Z,13.52
2019-05-19T21:45:27.210Z,13.33
2019-05-19T21:47:55.629Z,13.47
2019-05-19T21:50:25.069Z,13.48
2019-05-19T21:52:53.511Z,13.58
2019-05-19T21:55:21.932Z,13.51
2019-05-19T21:57:52.914Z,13.50
2019-05-19T22:00:24.558Z,13.61
2019-05-19T22:02:53.021Z,13.52
2019-05-19T22:05:21.603Z,13.48
2019-05-19T22:07:57.773Z,13.49
2019-05-19T22:10:26.242Z,13.36
2019-05-19T22:12:57.175Z,13.42
2019-05-19T22:15:28.031Z,13.47
2019-05-19T22:17:59.082Z,13.38
2019-05-19T22:20:27.537Z,13.35
2019-05-19T22:22:55.948Z,13.34
2019-05-19T22:25:29.812Z,13.21
2019-05-19T22:27:59.266Z,13.25
2019-05-19T22:30:27.687Z,13.28
2019-05-19T22:32:58.645Z,13.28
2019-05-19T22:35:27.961Z,13.28
2019-05-19T22:38:03.198Z,13.27
2019-05-19T22:40:33.652Z,13.26
2019-05-19T22:43:11.166Z,13.25
2019-05-19T22:45:42.252Z,13.10
2019-05-19T22:48:12.753Z,13.24
2019-05-19T22:50:43.282Z,13.25
2019-05-19T22:53:14.933Z,13.19
2019-05-19T22:55:49.551Z,12.94
2019-05-19T22:58:17.932Z,13.16
2019-05-19T23:00:46.323Z,13.20
2019-05-19T23:03:14.757Z,13.14
2019-05-19T23:05:43.166Z,13.12
2019-05-19T23:08:11.581Z,13.14
2019-05-19T23:10:40.040Z,13.15
2019-05-19T23:13:11.198Z,12.94
2019-05-19T23:15:43.568Z,13.00
2019-05-19T23:18:14.400Z,12.91
2019-05-19T23:20:42.809Z,12.83
2019-05-19T23:23:11.267Z,12.92
2019-05-19T23:25:42.221Z,12.76
2019-05-19T23:28:11.646Z,12.81
2019-05-19T23:30:40.068Z,12.82
2019-05-19T23:33:08.505Z,12.82
2019-05-19T23:35:36.926Z,12.80
2019-05-19T23:38:05.344Z,12.78
2019-05-19T23:40:33.766Z,12.69
2019-05-19T23:43:05.144Z,12.78
2019-05-19T23:45:36.293Z,12.67
2019-05-19T23:48:08.484Z,12.54
2019-05-19T23:50:37.146Z,12.57
2019-05-19T23:53:08.226Z,12.58
2019-05-19T23:55:37.701Z,12.65
2019-05-19T23:58:06.140Z,12.56
